sensor_id;sensor_type;location;lat;lon;timestamp;P1;durP1;ratioP1;P2;durP2;ratioP2
45354;SDS011;31091;48.758;9.150;2023-01-29T00:02:20;10.43;;;5.95;;
45354;SDS011;31091;48.758;9.150;2023-01-29T00:05:05;10.55;;;6.32;;
45354;SDS011;31091;48.758;9.150;2023-01-29T00:07:51;9.90;;;5.32;;
45354;SDS011;31091;48.758;9.150;2023-01-29T00:10:36;10.82;;;5.72;;
45354;SDS011;31091;48.758;9.150;2023-01-29T00:13:21;9.82;;;5.78;;
45354;SDS011;31091;48.758;9.150;2023-01-29T00:16:06;9.63;;;5.32;;
45354;SDS011;31091;48.758;9.150;2023-01-29T00:18:52;10.23;;;5.60;;
45354;SDS011;31091;48.758;9.150;2023-01-29T00:21:37;8.90;;;5.22;;
45354;SDS011;31091;48.758;9.150;2023-01-29T00:24:22;13.20;;;6.38;;
45354;SDS011;31091;48.758;9.150;2023-01-29T00:27:07;8.45;;;4.95;;
45354;SDS011;31091;48.758;9.150;2023-01-29T00:29:53;10.15;;;5.97;;
45354;SDS011;31091;48.758;9.150;2023-01-29T00:32:53;8.85;;;5.35;;
45354;SDS011;31091;48.758;9.150;2023-01-29T00:35:39;9.60;;;5.13;;
45354;SDS011;31091;48.758;9.150;2023-01-29T00:38:24;9.10;;;4.88;;
45354;SDS011;31091;48.758;9.150;2023-01-29T00:41:11;7.65;;;4.53;;
45354;SDS011;31091;48.758;9.150;2023-01-29T00:44:15;10.43;;;5.63;;
45354;SDS011;31091;48.758;9.150;2023-01-29T00:47:19;8.07;;;5.05;;
45354;SDS011;31091;48.758;9.150;2023-01-29T00:50:19;7.90;;;4.75;;
45354;SDS011;31091;48.758;9.150;2023-01-29T00:53:04;7.18;;;4.72;;
45354;SDS011;31091;48.758;9.150;2023-01-29T00:55:50;7.40;;;4.97;;
45354;SDS011;31091;48.758;9.150;2023-01-29T00:58:35;6.97;;;4.15;;
45354;SDS011;31091;48.758;9.150;2023-01-29T01:01:21;8.00;;;5.32;;
45354;SDS011;31091;48.758;9.150;2023-01-29T01:04:26;8.52;;;5.32;;
45354;SDS011;31091;48.758;9.150;2023-01-29T01:07:11;7.25;;;4.75;;
45354;SDS011;31091;48.758;9.150;2023-01-29T01:09:56;8.32;;;4.80;;
45354;SDS011;31091;48.758;9.150;2023-01-29T01:13:01;9.23;;;4.40;;
45354;SDS011;31091;48.758;9.150;2023-01-29T01:15:47;9.38;;;4.70;;
45354;SDS011;31091;48.758;9.150;2023-01-29T01:18:32;10.70;;;5.38;;
45354;SDS011;31091;48.758;9.150;2023-01-29T01:21:17;8.93;;;4.70;;
45354;SDS011;31091;48.758;9.150;2023-01-29T01:24:02;13.90;;;6.03;;
45354;SDS011;31091;48.758;9.150;2023-01-29T01:26:49;8.32;;;5.10;;
45354;SDS011;31091;48.758;9.150;2023-01-29T01:29:35;10.45;;;5.88;;
45354;SDS011;31091;48.758;9.150;2023-01-29T01:32:20;10.50;;;5.15;;
45354;SDS011;31091;48.758;9.150;2023-01-29T01:35:06;8.85;;;5.28;;
45354;SDS011;31091;48.758;9.150;2023-01-29T01:37:52;9.50;;;5.53;;
45354;SDS011;31091;48.758;9.150;2023-01-29T01:40:42;7.80;;;4.82;;
45354;SDS011;31091;48.758;9.150;2023-01-29T01:43:27;7.40;;;4.75;;
45354;SDS011;31091;48.758;9.150;2023-01-29T01:46:13;9.77;;;5.28;;
45354;SDS011;31091;48.758;9.150;2023-01-29T01:49:04;7.65;;;4.75;;
45354;SDS011;31091;48.758;9.150;2023-01-29T01:51:51;9.50;;;5.22;;
45354;SDS011;31091;48.758;9.150;2023-01-29T01:54:36;11.55;;;5.07;;
45354;SDS011;31091;48.758;9.150;2023-01-29T01:57:22;12.02;;;5.65;;
45354;SDS011;31091;48.758;9.150;2023-01-29T02:00:10;9.50;;;5.10;;
45354;SDS011;31091;48.758;9.150;2023-01-29T02:02:57;9.63;;;4.82;;
45354;SDS011;31091;48.758;9.150;2023-01-29T02:06:02;13.32;;;5.47;;
45354;SDS011;31091;48.758;9.150;2023-01-29T02:09:08;11.73;;;5.88;;
45354;SDS011;31091;48.758;9.150;2023-01-29T02:12:14;7.35;;;5.03;;
45354;SDS011;31091;48.758;9.150;2023-01-29T02:15:00;8.30;;;5.18;;
45354;SDS011;31091;48.758;9.150;2023-01-29T02:17:45;11.55;;;6.40;;
45354;SDS011;31091;48.758;9.150;2023-01-29T02:20:32;11.18;;;5.65;;
45354;SDS011;31091;48.758;9.150;2023-01-29T02:23:27;13.48;;;5.57;;
45354;SDS011;31091;48.758;9.150;2023-01-29T02:26:27;9.85;;;5.68;;
45354;SDS011;31091;48.758;9.150;2023-01-29T02:29:26;9.25;;;4.65;;
45354;SDS011;31091;48.758;9.150;2023-01-29T02:39:19;11.00;;;5.07;;
45354;SDS011;31091;48.758;9.150;2023-01-29T02:41:45;6.03;;;4.10;;
45354;SDS011;31091;48.758;9.150;2023-01-29T02:45:17;7.45;;;4.38;;
45354;SDS011;31091;48.758;9.150;2023-01-29T02:50:37;8.27;;;5.10;;
45354;SDS011;31091;48.758;9.150;2023-01-29T02:53:31;6.93;;;4.10;;
45354;SDS011;31091;48.758;9.150;2023-01-29T02:56:19;8.07;;;4.40;;
45354;SDS011;31091;48.758;9.150;2023-01-29T02:59:17;9.52;;;5.25;;
45354;SDS011;31091;48.758;9.150;2023-01-29T03:02:06;8.10;;;4.43;;
45354;SDS011;31091;48.758;9.150;2023-01-29T03:04:54;10.13;;;4.88;;
45354;SDS011;31091;48.758;9.150;2023-01-29T03:07:43;8.00;;;4.90;;
45354;SDS011;31091;48.758;9.150;2023-01-29T03:10:35;8.90;;;4.90;;
45354;SDS011;31091;48.758;9.150;2023-01-29T03:16:17;9.63;;;4.88;;
45354;SDS011;31091;48.758;9.150;2023-01-29T03:19:05;10.23;;;4.97;;
45354;SDS011;31091;48.758;9.150;2023-01-29T03:21:55;9.27;;;4.88;;
45354;SDS011;31091;48.758;9.150;2023-01-29T03:27:52;6.78;;;3.80;;
45354;SDS011;31091;48.758;9.150;2023-01-29T03:30:59;8.00;;;4.55;;
45354;SDS011;31091;48.758;9.150;2023-01-29T03:34:18;7.30;;;4.28;;
45354;SDS011;31091;48.758;9.150;2023-01-29T03:40:23;7.40;;;4.22;;
45354;SDS011;31091;48.758;9.150;2023-01-29T03:43:10;9.68;;;4.95;;
45354;SDS011;31091;48.758;9.150;2023-01-29T03:45:59;8.02;;;4.78;;
45354;SDS011;31091;48.758;9.150;2023-01-29T03:51:36;8.43;;;3.90;;
45354;SDS011;31091;48.758;9.150;2023-01-29T04:03:26;8.18;;;4.20;;
45354;SDS011;31091;48.758;9.150;2023-01-29T04:06:21;7.38;;;4.32;;
45354;SDS011;31091;48.758;9.150;2023-01-29T04:09:15;7.47;;;4.45;;
45354;SDS011;31091;48.758;9.150;2023-01-29T04:12:03;8.10;;;4.72;;
45354;SDS011;31091;48.758;9.150;2023-01-29T04:14:48;6.80;;;4.15;;
45354;SDS011;31091;48.758;9.150;2023-01-29T04:17:38;6.65;;;3.95;;
45354;SDS011;31091;48.758;9.150;2023-01-29T04:20:25;7.75;;;4.85;;
45354;SDS011;31091;48.758;9.150;2023-01-29T04:23:23;5.05;;;3.38;;
45354;SDS011;31091;48.758;9.150;2023-01-29T04:26:14;7.75;;;4.75;;
45354;SDS011;31091;48.758;9.150;2023-01-29T04:29:07;7.47;;;4.45;;
45354;SDS011;31091;48.758;9.150;2023-01-29T04:32:09;6.65;;;4.15;;
45354;SDS011;31091;48.758;9.150;2023-01-29T04:37:46;9.18;;;3.83;;
45354;SDS011;31091;48.758;9.150;2023-01-29T04:40:34;8.93;;;5.00;;
45354;SDS011;31091;48.758;9.150;2023-01-29T04:43:34;8.65;;;4.53;;
45354;SDS011;31091;48.758;9.150;2023-01-29T04:49:15;10.90;;;6.10;;
45354;SDS011;31091;48.758;9.150;2023-01-29T04:55:00;8.52;;;5.00;;
45354;SDS011;31091;48.758;9.150;2023-01-29T05:00:34;9.07;;;5.03;;
45354;SDS011;31091;48.758;9.150;2023-01-29T05:03:22;8.70;;;4.68;;
45354;SDS011;31091;48.758;9.150;2023-01-29T05:06:11;8.65;;;4.88;;
45354;SDS011;31091;48.758;9.150;2023-01-29T05:08:56;8.48;;;4.25;;
45354;SDS011;31091;48.758;9.150;2023-01-29T05:11:43;7.93;;;4.65;;
45354;SDS011;31091;48.758;9.150;2023-01-29T05:14:29;7.05;;;4.85;;
45354;SDS011;31091;48.758;9.150;2023-01-29T05:17:17;7.50;;;4.45;;
45354;SDS011;31091;48.758;9.150;2023-01-29T05:20:03;6.72;;;4.00;;
45354;SDS011;31091;48.758;9.150;2023-01-29T05:22:50;7.88;;;4.70;;
45354;SDS011;31091;48.758;9.150;2023-01-29T05:25:35;8.98;;;4.88;;
45354;SDS011;31091;48.758;9.150;2023-01-29T05:28:20;7.85;;;4.85;;
45354;SDS011;31091;48.758;9.150;2023-01-29T05:31:05;8.55;;;4.43;;
45354;SDS011;31091;48.758;9.150;2023-01-29T05:33:51;9.02;;;5.07;;
45354;SDS011;31091;48.758;9.150;2023-01-29T05:36:36;9.25;;;4.72;;
45354;SDS011;31091;48.758;9.150;2023-01-29T05:39:21;7.80;;;4.35;;
45354;SDS011;31091;48.758;9.150;2023-01-29T05:42:06;7.72;;;4.63;;
45354;SDS011;31091;48.758;9.150;2023-01-29T05:44:51;9.25;;;5.03;;
45354;SDS011;31091;48.758;9.150;2023-01-29T05:47:37;9.20;;;4.40;;
45354;SDS011;31091;48.758;9.150;2023-01-29T05:50:22;7.18;;;4.28;;
45354;SDS011;31091;48.758;9.150;2023-01-29T05:53:08;8.20;;;4.65;;
45354;SDS011;31091;48.758;9.150;2023-01-29T05:55:53;8.55;;;4.28;;
45354;SDS011;31091;48.758;9.150;2023-01-29T05:58:41;9.90;;;4.95;;
45354;SDS011;31091;48.758;9.150;2023-01-29T06:01:26;8.38;;;4.72;;
45354;SDS011;31091;48.758;9.150;2023-01-29T06:04:11;7.35;;;4.28;;
45354;SDS011;31091;48.758;9.150;2023-01-29T06:06:57;6.72;;;3.63;;
45354;SDS011;31091;48.758;9.150;2023-01-29T06:09:42;8.75;;;4.55;;
45354;SDS011;31091;48.758;9.150;2023-01-29T06:12:27;9.10;;;4.72;;
45354;SDS011;31091;48.758;9.150;2023-01-29T06:15:13;7.82;;;4.00;;
45354;SDS011;31091;48.758;9.150;2023-01-29T06:18:03;8.27;;;5.05;;
45354;SDS011;31091;48.758;9.150;2023-01-29T06:20:48;8.52;;;4.88;;
45354;SDS011;31091;48.758;9.150;2023-01-29T06:23:34;8.85;;;4.70;;
45354;SDS011;31091;48.758;9.150;2023-01-29T06:26:19;7.53;;;4.72;;
45354;SDS011;31091;48.758;9.150;2023-01-29T06:29:04;8.98;;;4.47;;
45354;SDS011;31091;48.758;9.150;2023-01-29T06:31:50;12.52;;;5.13;;
45354;SDS011;31091;48.758;9.150;2023-01-29T06:34:35;8.50;;;4.95;;
45354;SDS011;31091;48.758;9.150;2023-01-29T06:37:20;9.60;;;5.10;;
45354;SDS011;31091;48.758;9.150;2023-01-29T06:40:06;8.45;;;4.93;;
45354;SDS011;31091;48.758;9.150;2023-01-29T06:42:51;9.25;;;4.53;;
45354;SDS011;31091;48.758;9.150;2023-01-29T06:45:36;8.63;;;4.68;;
45354;SDS011;31091;48.758;9.150;2023-01-29T06:48:22;7.03;;;4.75;;
45354;SDS011;31091;48.758;9.150;2023-01-29T06:51:08;8.25;;;4.75;;
45354;SDS011;31091;48.758;9.150;2023-01-29T06:53:53;8.15;;;4.80;;
45354;SDS011;31091;48.758;9.150;2023-01-29T06:56:40;9.43;;;4.90;;
45354;SDS011;31091;48.758;9.150;2023-01-29T06:59:25;9.95;;;5.18;;
45354;SDS011;31091;48.758;9.150;2023-01-29T07:02:10;10.13;;;4.60;;
45354;SDS011;31091;48.758;9.150;2023-01-29T07:04:55;7.13;;;3.95;;
45354;SDS011;31091;48.758;9.150;2023-01-29T07:07:40;7.40;;;4.90;;
45354;SDS011;31091;48.758;9.150;2023-01-29T07:10:26;9.70;;;4.75;;
45354;SDS011;31091;48.758;9.150;2023-01-29T07:13:11;7.85;;;4.88;;
45354;SDS011;31091;48.758;9.150;2023-01-29T07:15:57;7.22;;;4.70;;
45354;SDS011;31091;48.758;9.150;2023-01-29T07:18:42;11.35;;;5.38;;
45354;SDS011;31091;48.758;9.150;2023-01-29T07:21:27;8.52;;;4.68;;
45354;SDS011;31091;48.758;9.150;2023-01-29T07:24:13;9.77;;;5.03;;
45354;SDS011;31091;48.758;9.150;2023-01-29T07:26:58;10.98;;;4.97;;
45354;SDS011;31091;48.758;9.150;2023-01-29T07:29:43;8.15;;;4.43;;
45354;SDS011;31091;48.758;9.150;2023-01-29T07:32:28;7.75;;;4.47;;
45354;SDS011;31091;48.758;9.150;2023-01-29T07:35:14;12.07;;;4.80;;
45354;SDS011;31091;48.758;9.150;2023-01-29T07:37:59;8.52;;;4.35;;
45354;SDS011;31091;48.758;9.150;2023-01-29T07:40:44;8.15;;;4.93;;
45354;SDS011;31091;48.758;9.150;2023-01-29T07:43:29;8.07;;;4.88;;
45354;SDS011;31091;48.758;9.150;2023-01-29T07:46:15;9.25;;;4.90;;
45354;SDS011;31091;48.758;9.150;2023-01-29T07:49:00;8.07;;;4.90;;
45354;SDS011;31091;48.758;9.150;2023-01-29T07:51:45;9.32;;;4.97;;
45354;SDS011;31091;48.758;9.150;2023-01-29T07:54:30;8.00;;;5.15;;
45354;SDS011;31091;48.758;9.150;2023-01-29T07:57:16;7.88;;;4.53;;
45354;SDS011;31091;48.758;9.150;2023-01-29T08:00:01;8.52;;;4.97;;
45354;SDS011;31091;48.758;9.150;2023-01-29T08:02:46;9.30;;;5.25;;
45354;SDS011;31091;48.758;9.150;2023-01-29T08:05:32;10.93;;;5.40;;
45354;SDS011;31091;48.758;9.150;2023-01-29T08:08:17;9.65;;;5.80;;
45354;SDS011;31091;48.758;9.150;2023-01-29T08:11:03;9.45;;;5.40;;
45354;SDS011;31091;48.758;9.150;2023-01-29T08:13:49;7.50;;;4.63;;
45354;SDS011;31091;48.758;9.150;2023-01-29T08:16:34;12.68;;;5.10;;
45354;SDS011;31091;48.758;9.150;2023-01-29T08:19:19;9.80;;;5.35;;
45354;SDS011;31091;48.758;9.150;2023-01-29T08:22:05;10.60;;;5.20;;
45354;SDS011;31091;48.758;9.150;2023-01-29T08:24:50;10.02;;;6.00;;
45354;SDS011;31091;48.758;9.150;2023-01-29T08:27:36;9.88;;;5.63;;
45354;SDS011;31091;48.758;9.150;2023-01-29T08:30:21;7.90;;;5.03;;
45354;SDS011;31091;48.758;9.150;2023-01-29T08:33:07;9.40;;;5.22;;
45354;SDS011;31091;48.758;9.150;2023-01-29T08:35:52;10.35;;;6.20;;
45354;SDS011;31091;48.758;9.150;2023-01-29T08:38:37;9.45;;;6.45;;
45354;SDS011;31091;48.758;9.150;2023-01-29T08:41:22;9.20;;;5.53;;
45354;SDS011;31091;48.758;9.150;2023-01-29T08:44:08;8.88;;;4.93;;
45354;SDS011;31091;48.758;9.150;2023-01-29T08:46:53;11.30;;;5.72;;
45354;SDS011;31091;48.758;9.150;2023-01-29T08:49:38;9.73;;;6.10;;
45354;SDS011;31091;48.758;9.150;2023-01-29T08:52:23;10.27;;;5.72;;
45354;SDS011;31091;48.758;9.150;2023-01-29T08:55:09;10.65;;;5.70;;
45354;SDS011;31091;48.758;9.150;2023-01-29T08:57:54;9.45;;;5.65;;
45354;SDS011;31091;48.758;9.150;2023-01-29T09:00:41;8.30;;;5.25;;
45354;SDS011;31091;48.758;9.150;2023-01-29T09:03:26;8.32;;;5.15;;
45354;SDS011;31091;48.758;9.150;2023-01-29T09:06:12;8.82;;;4.95;;
45354;SDS011;31091;48.758;9.150;2023-01-29T09:08:58;10.60;;;6.30;;
45354;SDS011;31091;48.758;9.150;2023-01-29T09:11:43;12.63;;;6.68;;
45354;SDS011;31091;48.758;9.150;2023-01-29T09:14:29;9.88;;;5.60;;
45354;SDS011;31091;48.758;9.150;2023-01-29T09:17:14;9.70;;;6.03;;
45354;SDS011;31091;48.758;9.150;2023-01-29T09:19:59;11.05;;;6.38;;
45354;SDS011;31091;48.758;9.150;2023-01-29T09:22:45;10.07;;;4.97;;
45354;SDS011;31091;48.758;9.150;2023-01-29T09:25:30;9.68;;;5.35;;
45354;SDS011;31091;48.758;9.150;2023-01-29T09:28:15;10.07;;;5.60;;
45354;SDS011;31091;48.758;9.150;2023-01-29T09:31:04;9.57;;;5.38;;
45354;SDS011;31091;48.758;9.150;2023-01-29T09:33:49;10.48;;;5.70;;
45354;SDS011;31091;48.758;9.150;2023-01-29T09:36:34;9.57;;;6.10;;
45354;SDS011;31091;48.758;9.150;2023-01-29T09:39:19;10.77;;;5.53;;
45354;SDS011;31091;48.758;9.150;2023-01-29T09:42:07;10.07;;;5.75;;
45354;SDS011;31091;48.758;9.150;2023-01-29T09:47:38;9.98;;;6.38;;
45354;SDS011;31091;48.758;9.150;2023-01-29T09:56:04;9.30;;;6.35;;
45354;SDS011;31091;48.758;9.150;2023-01-29T09:58:51;9.55;;;5.32;;
45354;SDS011;31091;48.758;9.150;2023-01-29T10:04:34;10.77;;;6.32;;
45354;SDS011;31091;48.758;9.150;2023-01-29T10:24:53;9.82;;;6.20;;
45354;SDS011;31091;48.758;9.150;2023-01-29T10:27:46;11.70;;;6.50;;
45354;SDS011;31091;48.758;9.150;2023-01-29T10:30:33;8.70;;;5.60;;
45354;SDS011;31091;48.758;9.150;2023-01-29T10:33:24;10.25;;;6.47;;
45354;SDS011;31091;48.758;9.150;2023-01-29T10:36:16;10.23;;;6.28;;
45354;SDS011;31091;48.758;9.150;2023-01-29T10:39:02;10.77;;;6.30;;
45354;SDS011;31091;48.758;9.150;2023-01-29T10:47:41;9.55;;;5.97;;
45354;SDS011;31091;48.758;9.150;2023-01-29T10:50:43;10.52;;;5.68;;
45354;SDS011;31091;48.758;9.150;2023-01-29T10:53:32;10.65;;;6.18;;
45354;SDS011;31091;48.758;9.150;2023-01-29T10:56:41;13.43;;;6.45;;
45354;SDS011;31091;48.758;9.150;2023-01-29T11:02:32;10.68;;;6.35;;
45354;SDS011;31091;48.758;9.150;2023-01-29T11:08:07;11.52;;;7.03;;
45354;SDS011;31091;48.758;9.150;2023-01-29T11:13:44;10.38;;;6.50;;
45354;SDS011;31091;48.758;9.150;2023-01-29T11:16:30;9.18;;;6.10;;
45354;SDS011;31091;48.758;9.150;2023-01-29T11:19:17;10.10;;;5.82;;
45354;SDS011;31091;48.758;9.150;2023-01-29T11:22:02;8.65;;;5.78;;
45354;SDS011;31091;48.758;9.150;2023-01-29T11:25:06;9.05;;;5.70;;
45354;SDS011;31091;48.758;9.150;2023-01-29T11:27:53;9.90;;;5.95;;
45354;SDS011;31091;48.758;9.150;2023-01-29T11:30:39;9.82;;;6.20;;
45354;SDS011;31091;48.758;9.150;2023-01-29T11:33:28;12.63;;;6.70;;
45354;SDS011;31091;48.758;9.150;2023-01-29T11:39:19;11.23;;;6.60;;
45354;SDS011;31091;48.758;9.150;2023-01-29T11:42:08;11.73;;;6.05;;
45354;SDS011;31091;48.758;9.150;2023-01-29T11:45:02;13.55;;;6.28;;
45354;SDS011;31091;48.758;9.150;2023-01-29T11:47:49;13.20;;;6.07;;
45354;SDS011;31091;48.758;9.150;2023-01-29T11:50:36;11.13;;;6.70;;
45354;SDS011;31091;48.758;9.150;2023-01-29T11:53:30;12.05;;;6.95;;
45354;SDS011;31091;48.758;9.150;2023-01-29T11:56:19;11.90;;;6.72;;
45354;SDS011;31091;48.758;9.150;2023-01-29T11:59:05;10.45;;;5.97;;
45354;SDS011;31091;48.758;9.150;2023-01-29T12:02:26;9.90;;;6.28;;
45354;SDS011;31091;48.758;9.150;2023-01-29T12:05:15;10.93;;;6.57;;
45354;SDS011;31091;48.758;9.150;2023-01-29T12:08:00;10.77;;;5.97;;
45354;SDS011;31091;48.758;9.150;2023-01-29T12:10:46;10.45;;;6.68;;
45354;SDS011;31091;48.758;9.150;2023-01-29T12:13:31;10.38;;;6.97;;
45354;SDS011;31091;48.758;9.150;2023-01-29T12:16:19;10.07;;;6.28;;
45354;SDS011;31091;48.758;9.150;2023-01-29T12:22:20;11.40;;;5.90;;
45354;SDS011;31091;48.758;9.150;2023-01-29T12:28:45;10.05;;;5.90;;
45354;SDS011;31091;48.758;9.150;2023-01-29T12:31:27;14.35;;;7.10;;
45354;SDS011;31091;48.758;9.150;2023-01-29T12:34:15;11.43;;;7.30;;
45354;SDS011;31091;48.758;9.150;2023-01-29T12:37:15;11.18;;;6.82;;
45354;SDS011;31091;48.758;9.150;2023-01-29T12:40:09;11.43;;;6.13;;
45354;SDS011;31091;48.758;9.150;2023-01-29T12:42:56;11.43;;;6.45;;
45354;SDS011;31091;48.758;9.150;2023-01-29T12:45:45;10.77;;;6.55;;
45354;SDS011;31091;48.758;9.150;2023-01-29T12:48:32;9.93;;;6.25;;
45354;SDS011;31091;48.758;9.150;2023-01-29T12:51:23;10.25;;;5.72;;
45354;SDS011;31091;48.758;9.150;2023-01-29T12:54:11;11.63;;;6.25;;
45354;SDS011;31091;48.758;9.150;2023-01-29T12:56:59;10.13;;;6.82;;
45354;SDS011;31091;48.758;9.150;2023-01-29T12:59:46;12.18;;;6.32;;
45354;SDS011;31091;48.758;9.150;2023-01-29T13:08:23;11.10;;;6.82;;
45354;SDS011;31091;48.758;9.150;2023-01-29T13:14:19;13.10;;;6.50;;
45354;SDS011;31091;48.758;9.150;2023-01-29T13:17:09;11.38;;;6.72;;
45354;SDS011;31091;48.758;9.150;2023-01-29T13:19:58;11.60;;;7.15;;
45354;SDS011;31091;48.758;9.150;2023-01-29T13:22:44;11.40;;;6.70;;
45354;SDS011;31091;48.758;9.150;2023-01-29T13:25:30;11.50;;;7.25;;
45354;SDS011;31091;48.758;9.150;2023-01-29T13:28:17;10.45;;;6.65;;
45354;SDS011;31091;48.758;9.150;2023-01-29T13:31:25;13.77;;;7.10;;
45354;SDS011;31091;48.758;9.150;2023-01-29T13:34:12;12.18;;;6.43;;
45354;SDS011;31091;48.758;9.150;2023-01-29T13:37:02;10.50;;;6.63;;
45354;SDS011;31091;48.758;9.150;2023-01-29T13:39:53;13.25;;;7.00;;
45354;SDS011;31091;48.758;9.150;2023-01-29T13:42:41;12.68;;;6.85;;
45354;SDS011;31091;48.758;9.150;2023-01-29T13:45:34;9.93;;;6.67;;
45354;SDS011;31091;48.758;9.150;2023-01-29T13:48:22;10.75;;;6.53;;
45354;SDS011;31091;48.758;9.150;2023-01-29T13:51:10;10.90;;;6.65;;
45354;SDS011;31091;48.758;9.150;2023-01-29T13:54:03;11.93;;;7.07;;
45354;SDS011;31091;48.758;9.150;2023-01-29T13:59:52;12.50;;;7.22;;
45354;SDS011;31091;48.758;9.150;2023-01-29T14:02:39;9.90;;;6.70;;
45354;SDS011;31091;48.758;9.150;2023-01-29T14:14:49;12.82;;;7.75;;
45354;SDS011;31091;48.758;9.150;2023-01-29T14:17:10;14.93;;;7.28;;
45354;SDS011;31091;48.758;9.150;2023-01-29T14:20:03;10.05;;;6.30;;
45354;SDS011;31091;48.758;9.150;2023-01-29T14:22:59;12.65;;;7.88;;
45354;SDS011;31091;48.758;9.150;2023-01-29T14:25:45;11.85;;;6.80;;
45354;SDS011;31091;48.758;9.150;2023-01-29T14:28:32;9.85;;;6.20;;
45354;SDS011;31091;48.758;9.150;2023-01-29T14:34:34;13.38;;;7.60;;
45354;SDS011;31091;48.758;9.150;2023-01-29T14:37:38;15.32;;;7.40;;
45354;SDS011;31091;48.758;9.150;2023-01-29T14:40:25;11.38;;;6.78;;
45354;SDS011;31091;48.758;9.150;2023-01-29T14:43:29;13.02;;;7.20;;
45354;SDS011;31091;48.758;9.150;2023-01-29T14:49:48;13.00;;;7.10;;
45354;SDS011;31091;48.758;9.150;2023-01-29T14:52:37;13.63;;;7.53;;
45354;SDS011;31091;48.758;9.150;2023-01-29T14:55:25;12.23;;;7.13;;
45354;SDS011;31091;48.758;9.150;2023-01-29T14:58:33;10.88;;;7.00;;
45354;SDS011;31091;48.758;9.150;2023-01-29T15:01:25;12.02;;;6.50;;
45354;SDS011;31091;48.758;9.150;2023-01-29T15:04:37;11.77;;;6.82;;
45354;SDS011;31091;48.758;9.150;2023-01-29T15:07:31;12.25;;;7.28;;
45354;SDS011;31091;48.758;9.150;2023-01-29T15:10:19;9.50;;;5.90;;
45354;SDS011;31091;48.758;9.150;2023-01-29T15:13:24;10.68;;;7.35;;
45354;SDS011;31091;48.758;9.150;2023-01-29T15:16:15;11.40;;;6.95;;
45354;SDS011;31091;48.758;9.150;2023-01-29T15:19:12;10.98;;;6.40;;
45354;SDS011;31091;48.758;9.150;2023-01-29T15:22:17;13.38;;;7.38;;
45354;SDS011;31091;48.758;9.150;2023-01-29T15:25:33;11.25;;;6.10;;
45354;SDS011;31091;48.758;9.150;2023-01-29T15:28:19;13.00;;;7.95;;
45354;SDS011;31091;48.758;9.150;2023-01-29T15:31:06;11.45;;;6.80;;
45354;SDS011;31091;48.758;9.150;2023-01-29T15:33:55;11.07;;;6.47;;
45354;SDS011;31091;48.758;9.150;2023-01-29T15:36:41;14.35;;;7.47;;
45354;SDS011;31091;48.758;9.150;2023-01-29T15:39:26;12.18;;;6.53;;
45354;SDS011;31091;48.758;9.150;2023-01-29T15:42:13;16.48;;;6.88;;
45354;SDS011;31091;48.758;9.150;2023-01-29T15:45:01;13.73;;;7.65;;
45354;SDS011;31091;48.758;9.150;2023-01-29T15:47:46;12.50;;;6.32;;
45354;SDS011;31091;48.758;9.150;2023-01-29T15:50:33;19.38;;;7.20;;
45354;SDS011;31091;48.758;9.150;2023-01-29T15:53:20;14.25;;;8.15;;
45354;SDS011;31091;48.758;9.150;2023-01-29T15:56:10;14.15;;;6.93;;
45354;SDS011;31091;48.758;9.150;2023-01-29T15:58:57;12.77;;;7.13;;
45354;SDS011;31091;48.758;9.150;2023-01-29T16:01:43;10.48;;;6.10;;
45354;SDS011;31091;48.758;9.150;2023-01-29T16:04:28;13.68;;;7.07;;
45354;SDS011;31091;48.758;9.150;2023-01-29T16:07:15;15.45;;;7.07;;
45354;SDS011;31091;48.758;9.150;2023-01-29T16:10:00;13.60;;;6.40;;
45354;SDS011;31091;48.758;9.150;2023-01-29T16:12:47;12.75;;;6.60;;
45354;SDS011;31091;48.758;9.150;2023-01-29T16:15:36;10.88;;;5.70;;
45354;SDS011;31091;48.758;9.150;2023-01-29T16:18:23;12.98;;;7.60;;
45354;SDS011;31091;48.758;9.150;2023-01-29T16:21:09;12.40;;;6.63;;
45354;SDS011;31091;48.758;9.150;2023-01-29T16:24:00;12.73;;;5.90;;
45354;SDS011;31091;48.758;9.150;2023-01-29T16:29:31;14.55;;;7.68;;
45354;SDS011;31091;48.758;9.150;2023-01-29T16:32:17;11.50;;;6.75;;
45354;SDS011;31091;48.758;9.150;2023-01-29T16:35:04;15.73;;;5.75;;
45354;SDS011;31091;48.758;9.150;2023-01-29T16:37:49;13.82;;;6.85;;
45354;SDS011;31091;48.758;9.150;2023-01-29T16:40:35;11.40;;;7.22;;
45354;SDS011;31091;48.758;9.150;2023-01-29T16:46:17;14.98;;;8.15;;
45354;SDS011;31091;48.758;9.150;2023-01-29T16:52:25;14.00;;;7.97;;
45354;SDS011;31091;48.758;9.150;2023-01-29T16:57:56;19.98;;;7.75;;
45354;SDS011;31091;48.758;9.150;2023-01-29T17:00:45;17.05;;;8.38;;
45354;SDS011;31091;48.758;9.150;2023-01-29T17:03:31;13.40;;;7.47;;
45354;SDS011;31091;48.758;9.150;2023-01-29T17:06:22;12.85;;;7.97;;
45354;SDS011;31091;48.758;9.150;2023-01-29T17:09:15;12.90;;;7.47;;
45354;SDS011;31091;48.758;9.150;2023-01-29T17:12:06;12.40;;;6.85;;
45354;SDS011;31091;48.758;9.150;2023-01-29T17:14:56;12.50;;;6.97;;
45354;SDS011;31091;48.758;9.150;2023-01-29T17:17:41;13.15;;;7.70;;
45354;SDS011;31091;48.758;9.150;2023-01-29T17:20:28;14.82;;;7.40;;
45354;SDS011;31091;48.758;9.150;2023-01-29T17:23:13;14.65;;;7.45;;
45354;SDS011;31091;48.758;9.150;2023-01-29T17:25:58;15.57;;;8.88;;
45354;SDS011;31091;48.758;9.150;2023-01-29T17:28:44;14.95;;;8.60;;
45354;SDS011;31091;48.758;9.150;2023-01-29T17:31:29;13.98;;;7.70;;
45354;SDS011;31091;48.758;9.150;2023-01-29T17:34:15;16.50;;;8.30;;
45354;SDS011;31091;48.758;9.150;2023-01-29T17:37:00;12.90;;;7.35;;
45354;SDS011;31091;48.758;9.150;2023-01-29T17:39:46;13.88;;;7.57;;
45354;SDS011;31091;48.758;9.150;2023-01-29T17:42:34;20.60;;;12.10;;
45354;SDS011;31091;48.758;9.150;2023-01-29T17:45:19;20.30;;;11.23;;
45354;SDS011;31091;48.758;9.150;2023-01-29T17:48:09;17.98;;;9.18;;
45354;SDS011;31091;48.758;9.150;2023-01-29T17:50:56;16.05;;;8.48;;
45354;SDS011;31091;48.758;9.150;2023-01-29T17:53:42;14.13;;;7.32;;
45354;SDS011;31091;48.758;9.150;2023-01-29T17:56:27;17.92;;;8.40;;
45354;SDS011;31091;48.758;9.150;2023-01-29T17:59:15;12.55;;;7.45;;
45354;SDS011;31091;48.758;9.150;2023-01-29T18:02:00;16.65;;;6.82;;
45354;SDS011;31091;48.758;9.150;2023-01-29T18:04:45;14.50;;;7.40;;
45354;SDS011;31091;48.758;9.150;2023-01-29T18:07:35;13.63;;;7.88;;
45354;SDS011;31091;48.758;9.150;2023-01-29T18:10:21;15.43;;;7.28;;
45354;SDS011;31091;48.758;9.150;2023-01-29T18:13:06;12.93;;;8.27;;
45354;SDS011;31091;48.758;9.150;2023-01-29T18:15:52;13.38;;;7.60;;
45354;SDS011;31091;48.758;9.150;2023-01-29T18:18:37;13.40;;;6.88;;
45354;SDS011;31091;48.758;9.150;2023-01-29T18:21:22;12.60;;;6.50;;
45354;SDS011;31091;48.758;9.150;2023-01-29T18:24:08;14.65;;;7.60;;
45354;SDS011;31091;48.758;9.150;2023-01-29T18:26:53;13.70;;;7.88;;
45354;SDS011;31091;48.758;9.150;2023-01-29T18:29:38;12.15;;;7.13;;
45354;SDS011;31091;48.758;9.150;2023-01-29T18:32:23;14.30;;;8.15;;
45354;SDS011;31091;48.758;9.150;2023-01-29T18:35:09;13.88;;;8.10;;
45354;SDS011;31091;48.758;9.150;2023-01-29T18:37:54;14.18;;;7.00;;
45354;SDS011;31091;48.758;9.150;2023-01-29T18:40:39;14.95;;;7.47;;
45354;SDS011;31091;48.758;9.150;2023-01-29T18:43:25;14.32;;;8.90;;
45354;SDS011;31091;48.758;9.150;2023-01-29T18:46:10;15.30;;;8.32;;
45354;SDS011;31091;48.758;9.150;2023-01-29T18:48:55;18.40;;;8.40;;
45354;SDS011;31091;48.758;9.150;2023-01-29T18:51:40;17.10;;;8.65;;
45354;SDS011;31091;48.758;9.150;2023-01-29T18:54:26;14.45;;;8.75;;
45354;SDS011;31091;48.758;9.150;2023-01-29T18:57:11;16.27;;;9.32;;
45354;SDS011;31091;48.758;9.150;2023-01-29T18:59:56;17.13;;;9.13;;
45354;SDS011;31091;48.758;9.150;2023-01-29T19:02:43;19.52;;;10.88;;